createdAt,value
2018-06-27T00:01:06.205Z,15.20
2018-06-27T00:03:34.129Z,15.10
2018-06-27T00:06:02.226Z,15.10
2018-06-27T00:08:30.113Z,15.10
2018-06-27T00:10:58.072Z,15.10
2018-06-27T00:13:26.029Z,15.00
2018-06-27T00:15:53.945Z,15.00
2018-06-27T00:20:49.819Z,14.90
2018-06-27T00:23:17.709Z,14.90
2018-06-27T00:25:45.628Z,14.80
2018-06-27T00:28:13.631Z,14.70
2018-06-27T00:30:41.568Z,14.80
2018-06-27T00:33:09.440Z,14.70
2018-06-27T00:35:37.325Z,14.60
2018-06-27T00:38:12.686Z,14.60
2018-06-27T00:43:08.621Z,14.60
2018-06-27T00:45:36.706Z,14.60
2018-06-27T00:48:04.921Z,14.50
2018-06-27T00:50:32.810Z,14.50
2018-06-27T00:53:00.769Z,14.50
2018-06-27T00:55:28.641Z,14.40
2018-06-27T00:57:56.528Z,14.40
2018-06-27T01:00:27.026Z,14.40
2018-06-27T01:02:54.924Z,14.40
2018-06-27T01:05:22.809Z,14.30
2018-06-27T01:07:50.754Z,14.20
2018-06-27T01:10:18.745Z,14.20
2018-06-27T01:12:46.729Z,14.10
2018-06-27T01:15:14.658Z,14.10
2018-06-27T01:17:50.161Z,14.10
2018-06-27T01:20:18.092Z,14.10
2018-06-27T01:22:45.973Z,14.10
2018-06-27T01:25:13.868Z,14.00
2018-06-27T01:27:41.825Z,14.00
2018-06-27T01:30:09.781Z,14.00
2018-06-27T01:32:37.747Z,14.00
2018-06-27T01:35:05.780Z,14.10
2018-06-27T01:37:33.681Z,14.00
2018-06-27T01:40:01.577Z,13.90
2018-06-27T01:42:29.477Z,14.00
2018-06-27T01:44:57.376Z,14.00
2018-06-27T01:47:25.258Z,14.00
2018-06-27T01:49:53.243Z,14.00
2018-06-27T01:54:49.057Z,13.90
2018-06-27T01:57:16.990Z,14.00
2018-06-27T01:59:44.889Z,13.90
2018-06-27T02:02:12.810Z,13.80
2018-06-27T02:07:08.664Z,13.90
2018-06-27T02:09:36.532Z,13.80
2018-06-27T02:12:04.593Z,13.80
2018-06-27T02:14:32.557Z,13.70
2018-06-27T02:17:00.456Z,13.80
2018-06-27T02:19:28.326Z,13.90
2018-06-27T02:21:56.285Z,13.80
2018-06-27T02:24:24.270Z,13.80
2018-06-27T02:26:52.296Z,13.70
2018-06-27T02:29:20.217Z,13.70
2018-06-27T02:34:16.007Z,13.60
2018-06-27T02:36:43.934Z,13.60
2018-06-27T02:41:41.277Z,13.60
2018-06-27T02:44:10.963Z,13.70
2018-06-27T02:46:38.920Z,13.70
2018-06-27T02:49:07.067Z,13.60
2018-06-27T02:51:35.033Z,13.60
2018-06-27T02:54:02.986Z,13.50
2018-06-27T02:56:30.871Z,13.50
2018-06-27T02:58:58.778Z,13.50
2018-06-27T03:01:26.713Z,13.30
2018-06-27T03:03:54.792Z,13.40
2018-06-27T03:06:22.673Z,13.40
2018-06-27T03:08:50.556Z,13.40
2018-06-27T03:11:18.589Z,13.30
2018-06-27T03:13:46.511Z,13.30
2018-06-27T03:16:14.480Z,13.30
2018-06-27T03:18:53.155Z,13.30
2018-06-27T03:21:21.762Z,13.20
2018-06-27T03:23:49.859Z,13.20
2018-06-27T03:26:21.182Z,13.20
2018-06-27T03:28:49.146Z,13.20
2018-06-27T03:31:17.298Z,13.20
2018-06-27T03:33:45.430Z,13.20
2018-06-27T03:36:13.530Z,13.20
2018-06-27T03:38:41.439Z,13.20
2018-06-27T03:41:09.330Z,13.20
2018-06-27T03:43:37.308Z,13.20
2018-06-27T03:46:05.415Z,13.20
2018-06-27T03:48:33.342Z,13.20
2018-06-27T03:51:01.300Z,13.20
2018-06-27T03:53:39.352Z,13.20
2018-06-27T03:56:08.645Z,13.20
2018-06-27T03:58:37.344Z,13.20
2018-06-27T04:01:06.512Z,13.30
2018-06-27T04:03:34.409Z,13.30
2018-06-27T04:06:02.443Z,13.30
2018-06-27T04:08:30.345Z,13.30
2018-06-27T04:10:58.386Z,13.40
2018-06-27T04:13:26.378Z,13.40
2018-06-27T04:15:54.182Z,13.60
2018-06-27T04:18:22.165Z,13.50
2018-06-27T04:20:50.125Z,13.50
2018-06-27T04:23:17.968Z,13.60
2018-06-27T04:25:45.861Z,13.60
2018-06-27T04:28:13.825Z,13.70
2018-06-27T04:30:41.703Z,13.70
2018-06-27T04:33:09.627Z,13.80
2018-06-27T04:35:37.609Z,13.90
2018-06-27T04:38:05.655Z,14.00
2018-06-27T04:40:33.581Z,14.10
2018-06-27T04:43:01.529Z,14.20
2018-06-27T04:45:29.484Z,14.20
2018-06-27T04:47:57.406Z,14.30
2018-06-27T04:50:25.441Z,14.40
2018-06-27T04:52:53.344Z,14.60
2018-06-27T04:55:21.338Z,14.90
2018-06-27T04:57:49.401Z,15.90
2018-06-27T05:00:17.322Z,16.80
2018-06-27T05:02:45.245Z,17.70
2018-06-27T05:05:13.333Z,18.30
2018-06-27T05:07:41.243Z,18.90
2018-06-27T05:10:09.128Z,19.40
2018-06-27T05:12:37.065Z,19.60
2018-06-27T05:15:05.326Z,20.70
2018-06-27T05:17:33.294Z,20.80
2018-06-27T05:20:01.400Z,21.00
2018-06-27T05:22:29.445Z,22.00
2018-06-27T05:24:57.350Z,22.40
2018-06-27T05:27:25.671Z,22.00
2018-06-27T05:29:57.665Z,22.40
2018-06-27T05:32:25.788Z,23.40
2018-06-27T05:34:53.734Z,23.30
2018-06-27T05:37:21.590Z,23.10
2018-06-27T05:39:49.512Z,23.10
2018-06-27T05:42:17.540Z,23.60
2018-06-27T05:44:45.394Z,23.70
2018-06-27T05:47:13.378Z,23.60
2018-06-27T05:49:41.324Z,24.40
2018-06-27T05:52:09.242Z,24.40
2018-06-27T05:54:37.372Z,23.80
2018-06-27T05:57:05.429Z,23.60
2018-06-27T05:59:33.400Z,23.40
2018-06-27T06:02:01.377Z,22.10
2018-06-27T06:04:29.392Z,22.50
2018-06-27T06:06:57.368Z,22.30
2018-06-27T06:11:53.357Z,22.10
2018-06-27T06:14:21.209Z,21.10
2018-06-27T06:16:49.066Z,21.30
2018-06-27T06:21:44.813Z,21.90
2018-06-27T06:24:12.677Z,22.00
2018-06-27T06:26:40.626Z,22.40
2018-06-27T06:29:08.517Z,22.00
2018-06-27T06:31:36.437Z,21.70
2018-06-27T06:34:04.347Z,21.50
2018-06-27T06:36:32.266Z,22.20
2018-06-27T06:39:00.175Z,23.00
2018-06-27T06:41:28.077Z,22.70
2018-06-27T06:43:55.968Z,22.60
2018-06-27T06:46:23.849Z,22.70
2018-06-27T06:48:51.790Z,22.80
2018-06-27T06:51:19.704Z,21.40
2018-06-27T06:53:47.566Z,21.50
2018-06-27T06:56:15.487Z,22.00
2018-06-27T06:58:43.483Z,22.50
2018-06-27T07:01:11.381Z,22.60
2018-06-27T07:03:39.282Z,23.00
2018-06-27T07:06:07.165Z,22.80
2018-06-27T07:08:35.055Z,22.40
2018-06-27T07:11:03.074Z,22.10
2018-06-27T07:13:31.013Z,22.00
2018-06-27T07:15:59.004Z,21.80
2018-06-27T07:18:28.006Z,22.20
2018-06-27T07:20:56.025Z,21.20
2018-06-27T07:23:23.957Z,21.30
2018-06-27T07:25:51.889Z,21.30
2018-06-27T07:28:19.801Z,21.20
2018-06-27T07:30:47.777Z,21.30
2018-06-27T07:33:15.677Z,21.50
2018-06-27T07:35:43.608Z,21.70
2018-06-27T07:38:11.578Z,21.80
2018-06-27T07:40:39.498Z,21.60
2018-06-27T07:43:07.442Z,21.90
2018-06-27T07:45:35.381Z,21.70
2018-06-27T07:48:03.356Z,21.90
2018-06-27T07:50:31.162Z,22.30
2018-06-27T07:52:59.016Z,21.70
2018-06-27T07:55:26.961Z,21.30
2018-06-27T07:57:54.819Z,21.30
2018-06-27T08:00:22.694Z,21.50
2018-06-27T08:02:50.526Z,21.30
2018-06-27T08:05:18.451Z,21.50
2018-06-27T08:07:46.421Z,21.40
2018-06-27T08:10:14.294Z,21.70
2018-06-27T08:12:42.213Z,21.70
2018-06-27T08:15:10.082Z,21.80
2018-06-27T08:17:38.089Z,21.90
2018-06-27T08:20:05.990Z,22.20
2018-06-27T08:22:33.871Z,22.00
2018-06-27T08:25:01.753Z,22.10
2018-06-27T08:27:29.677Z,22.20
2018-06-27T08:29:57.794Z,22.40
2018-06-27T08:32:25.759Z,22.60
2018-06-27T08:34:53.622Z,22.40
2018-06-27T08:37:25.201Z,22.20
2018-06-27T08:39:53.394Z,22.30
2018-06-27T08:42:21.222Z,22.50
2018-06-27T08:44:49.189Z,22.30
2018-06-27T08:47:17.161Z,22.40
2018-06-27T08:49:45.035Z,22.60
2018-06-27T08:52:12.914Z,22.60
2018-06-27T08:54:46.661Z,22.50
2018-06-27T08:57:16.555Z,22.70
2018-06-27T08:59:44.536Z,22.60
2018-06-27T09:02:12.357Z,22.60
2018-06-27T09:04:40.544Z,22.70
2018-06-27T09:09:36.752Z,23.00
2018-06-27T09:12:04.833Z,23.20
2018-06-27T09:14:32.661Z,23.40
2018-06-27T09:17:00.696Z,23.20
2018-06-27T09:19:28.685Z,23.40
2018-06-27T09:21:56.613Z,23.40
2018-06-27T09:24:24.554Z,23.60
2018-06-27T09:26:52.416Z,24.00
2018-06-27T09:31:48.225Z,24.60
2018-06-27T09:34:16.134Z,24.20
2018-06-27T09:36:43.999Z,24.30
2018-06-27T09:39:11.881Z,24.60
2018-06-27T09:41:39.725Z,24.60
2018-06-27T09:44:07.605Z,24.80
2018-06-27T09:46:35.783Z,24.60
2018-06-27T09:49:03.656Z,24.60
2018-06-27T09:53:59.476Z,25.50
2018-06-27T09:56:27.409Z,25.80
2018-06-27T09:58:55.398Z,26.70
2018-06-27T10:01:23.309Z,27.20
2018-06-27T10:03:51.278Z,28.30
2018-06-27T10:06:19.177Z,29.10
2018-06-27T10:11:14.989Z,30.20
2018-06-27T10:13:42.872Z,31.10
2018-06-27T10:16:11.564Z,30.90
2018-06-27T10:18:39.619Z,32.00
2018-06-27T10:21:07.529Z,31.70
2018-06-27T10:23:35.966Z,32.30
2018-06-27T10:26:04.155Z,33.00
2018-06-27T10:28:34.846Z,33.00
2018-06-27T10:31:02.749Z,33.60
2018-06-27T10:33:30.669Z,33.70
2018-06-27T10:35:58.506Z,34.10
2018-06-27T10:38:26.370Z,34.10
2018-06-27T10:40:54.300Z,33.50
2018-06-27T10:43:22.188Z,34.80
2018-06-27T10:45:50.048Z,34.10
2018-06-27T10:50:45.773Z,34.80
2018-06-27T10:53:13.624Z,34.10
2018-06-27T10:55:41.538Z,34.90
2018-06-27T10:58:09.438Z,36.00
2018-06-27T11:00:37.306Z,36.20
2018-06-27T11:03:05.169Z,36.00
2018-06-27T11:05:33.033Z,35.50
2018-06-27T11:08:00.962Z,35.90
2018-06-27T11:10:29.058Z,35.60
2018-06-27T11:12:56.944Z,36.40
2018-06-27T11:15:24.832Z,35.70
2018-06-27T11:17:52.739Z,35.10
2018-06-27T11:20:20.591Z,35.80
2018-06-27T11:22:48.421Z,36.10
2018-06-27T11:25:22.005Z,36.70
2018-06-27T11:27:50.168Z,36.50
2018-06-27T11:30:18.486Z,36.60
2018-06-27T11:32:46.463Z,37.00
2018-06-27T11:35:14.327Z,37.00
2018-06-27T11:37:42.145Z,35.80
2018-06-27T11:40:10.050Z,36.10
2018-06-27T11:42:38.542Z,35.00
2018-06-27T11:45:06.606Z,34.40
2018-06-27T11:47:34.582Z,34.00
2018-06-27T11:50:04.306Z,34.70
2018-06-27T11:52:32.190Z,34.20
2018-06-27T11:55:05.809Z,35.00
2018-06-27T11:57:33.721Z,35.30
2018-06-27T12:00:01.678Z,35.30
2018-06-27T12:02:29.931Z,33.60
2018-06-27T12:05:01.847Z,33.70
2018-06-27T12:07:29.786Z,32.60
2018-06-27T12:09:58.093Z,31.80
2018-06-27T12:12:26.044Z,30.90
2018-06-27T12:14:53.945Z,31.90
2018-06-27T12:17:29.868Z,31.60
2018-06-27T12:19:58.568Z,31.20
2018-06-27T12:22:26.863Z,31.20
2018-06-27T12:24:58.883Z,31.70
2018-06-27T12:27:26.836Z,30.90
2018-06-27T12:29:56.224Z,30.50
2018-06-27T12:32:26.002Z,30.50
2018-06-27T12:34:53.933Z,31.50
2018-06-27T12:37:21.925Z,31.70
2018-06-27T12:39:50.638Z,32.40
2018-06-27T12:42:20.546Z,31.60
2018-06-27T12:44:48.693Z,30.20
2018-06-27T12:47:22.646Z,30.50
2018-06-27T12:49:51.854Z,30.60
2018-06-27T12:52:20.066Z,31.20
2018-06-27T12:54:47.938Z,32.10
2018-06-27T12:57:15.813Z,32.60
2018-06-27T12:59:43.712Z,32.70
2018-06-27T13:02:11.630Z,32.50
2018-06-27T13:04:41.185Z,30.90
2018-06-27T13:07:15.527Z,32.00
2018-06-27T13:09:46.934Z,31.70
2018-06-27T13:12:20.689Z,31.40
2018-06-27T13:14:51.118Z,31.70
2018-06-27T13:17:19.010Z,31.50
2018-06-27T13:22:15.018Z,29.20
2018-06-27T13:24:42.981Z,29.90
2018-06-27T13:27:10.955Z,31.10
2018-06-27T13:29:38.917Z,31.40
2018-06-27T13:32:06.901Z,31.90
2018-06-27T13:34:34.750Z,30.80
2018-06-27T13:37:03.009Z,30.30
2018-06-27T13:39:34.402Z,29.70
2018-06-27T13:42:06.001Z,29.40
2018-06-27T13:44:34.104Z,29.80
2018-06-27T13:47:01.968Z,29.80
2018-06-27T13:49:29.797Z,28.80
2018-06-27T13:51:57.741Z,28.90
2018-06-27T13:54:25.696Z,28.70
2018-06-27T13:56:53.689Z,28.40
2018-06-27T13:59:21.539Z,28.60
2018-06-27T14:01:49.453Z,28.40
2018-06-27T14:04:17.257Z,28.10
2018-06-27T14:06:45.046Z,28.20
2018-06-27T14:09:12.940Z,27.50
2018-06-27T14:11:40.821Z,27.30
2018-06-27T14:14:08.664Z,27.10
2018-06-27T14:16:36.530Z,27.40
2018-06-27T14:19:04.508Z,27.60
2018-06-27T14:21:32.333Z,28.30
2018-06-27T14:24:00.393Z,27.60
2018-06-27T14:26:28.183Z,27.50
2018-06-27T14:28:56.033Z,27.70
2018-06-27T14:31:23.910Z,27.90
2018-06-27T14:33:51.721Z,27.70
2018-06-27T14:36:19.606Z,27.60
2018-06-27T14:41:15.334Z,27.30
2018-06-27T14:43:43.189Z,27.10
2018-06-27T14:46:11.069Z,27.30
2018-06-27T14:48:38.966Z,26.90
2018-06-27T14:53:36.509Z,26.60
2018-06-27T14:56:04.560Z,26.80
2018-06-27T14:58:43.853Z,26.30
2018-06-27T15:01:11.768Z,26.50
2018-06-27T15:03:39.690Z,26.70
2018-06-27T15:06:07.627Z,26.50
2018-06-27T15:08:35.661Z,26.30
2018-06-27T15:13:31.494Z,26.40
2018-06-27T15:15:59.447Z,26.20
2018-06-27T15:18:27.354Z,25.90
2018-06-27T15:20:55.333Z,26.20
2018-06-27T15:23:23.283Z,26.20
2018-06-27T15:25:51.213Z,26.10
2018-06-27T15:28:19.245Z,26.20
2018-06-27T15:33:15.080Z,26.20
2018-06-27T15:35:42.857Z,26.10
2018-06-27T15:38:10.744Z,26.20
2018-06-27T15:40:38.661Z,26.20
2018-06-27T15:43:06.878Z,26.30
2018-06-27T15:48:02.841Z,26.40
2018-06-27T15:50:30.774Z,26.30
2018-06-27T15:52:58.663Z,26.40
2018-06-27T15:55:30.862Z,26.50
2018-06-27T15:58:01.293Z,26.70
2018-06-27T16:00:31.945Z,26.80
2018-06-27T16:02:59.897Z,26.80
2018-06-27T16:05:27.823Z,26.40
2018-06-27T16:07:55.865Z,26.30
2018-06-27T16:10:23.797Z,26.50
2018-06-27T16:12:51.863Z,26.50
2018-06-27T16:15:19.927Z,26.50
2018-06-27T16:17:47.990Z,26.20
2018-06-27T16:20:15.969Z,26.00
2018-06-27T16:22:43.873Z,25.90
2018-06-27T16:25:11.794Z,25.60
2018-06-27T16:27:39.801Z,25.20
2018-06-27T16:30:14.600Z,25.10
2018-06-27T16:32:42.647Z,25.00
2018-06-27T16:35:10.569Z,25.10
2018-06-27T16:37:38.572Z,25.40
2018-06-27T16:42:34.420Z,25.80
2018-06-27T16:45:02.374Z,26.00
2018-06-27T16:47:32.612Z,25.40
2018-06-27T16:50:00.513Z,25.40
2018-06-27T16:52:28.334Z,25.30
2018-06-27T16:54:56.287Z,25.20
2018-06-27T16:57:24.290Z,24.90
2018-06-27T16:59:52.266Z,24.70
2018-06-27T17:02:21.715Z,24.70
2018-06-27T17:04:49.677Z,24.70
2018-06-27T17:07:23.853Z,24.70
2018-06-27T17:12:19.951Z,24.80
2018-06-27T17:14:47.741Z,24.60
2018-06-27T17:17:15.684Z,24.60
2018-06-27T17:19:43.617Z,24.60
2018-06-27T17:22:11.487Z,24.60
2018-06-27T17:24:39.350Z,24.70
2018-06-27T17:27:07.335Z,24.60
2018-06-27T17:29:35.193Z,24.60
2018-06-27T17:32:03.073Z,24.50
2018-06-27T17:34:30.961Z,24.40
2018-06-27T17:36:58.909Z,24.30
2018-06-27T17:39:26.853Z,24.30
2018-06-27T17:41:54.843Z,24.30
2018-06-27T17:44:22.781Z,24.30
2018-06-27T17:51:47.042Z,24.10
2018-06-27T17:54:14.994Z,24.20
2018-06-27T17:56:42.992Z,24.00
2018-06-27T17:59:10.881Z,24.00
2018-06-27T18:01:38.873Z,23.90
2018-06-27T18:04:07.278Z,23.90
2018-06-27T18:06:35.239Z,23.80
2018-06-27T18:09:05.523Z,23.80
2018-06-27T18:11:33.461Z,23.70
2018-06-27T18:14:01.360Z,23.70
2018-06-27T18:18:57.327Z,23.60
2018-06-27T18:21:25.334Z,23.50
2018-06-27T18:23:53.409Z,23.50
2018-06-27T18:26:21.931Z,23.40
2018-06-27T18:28:49.941Z,23.40
2018-06-27T18:31:17.968Z,23.40
2018-06-27T18:33:46.002Z,23.30
2018-06-27T18:36:13.939Z,23.20
2018-06-27T18:38:42.129Z,23.10
2018-06-27T18:41:10.288Z,23.10
2018-06-27T18:46:06.154Z,23.00
2018-06-27T18:48:34.160Z,22.90
2018-06-27T18:53:29.889Z,22.80
2018-06-27T18:56:01.968Z,22.70
2018-06-27T18:58:32.650Z,22.70
2018-06-27T19:01:00.671Z,22.60
2018-06-27T19:03:28.866Z,22.50
2018-06-27T19:05:56.737Z,22.40
2018-06-27T19:08:24.669Z,22.30
2018-06-27T19:10:53.009Z,22.20
2018-06-27T19:13:20.912Z,22.20
2018-06-27T19:15:49.365Z,22.10
2018-06-27T19:18:17.362Z,22.00
2018-06-27T19:20:52.159Z,21.90
2018-06-27T19:23:22.997Z,21.90
2018-06-27T19:25:50.882Z,21.80
2018-06-27T19:28:18.805Z,21.80
2018-06-27T19:30:46.842Z,21.60
2018-06-27T19:33:14.712Z,21.50
2018-06-27T19:35:44.584Z,21.40
2018-06-27T19:38:12.568Z,21.30
2018-06-27T19:40:42.102Z,21.20
2018-06-27T19:43:10.040Z,21.10
2018-06-27T19:45:38.071Z,21.00
2018-06-27T19:48:06.217Z,21.00
2018-06-27T19:50:34.224Z,20.90
2018-06-27T19:55:41.234Z,20.80
2018-06-27T19:58:12.088Z,20.60
2018-06-27T20:00:40.834Z,20.60
2018-06-27T20:03:14.962Z,20.50
2018-06-27T20:05:44.153Z,20.40
2018-06-27T20:10:40.811Z,20.40
2018-06-27T20:13:13.606Z,20.30
2018-06-27T20:18:16.068Z,20.20
2018-06-27T20:20:46.442Z,20.10
2018-06-27T20:23:18.065Z,20.10
2018-06-27T20:25:46.134Z,20.10
2018-06-27T20:28:14.027Z,20.00
2018-06-27T20:30:42.017Z,19.90
2018-06-27T20:33:09.927Z,19.80
2018-06-27T20:35:37.858Z,19.70
2018-06-27T20:38:07.877Z,19.60
2018-06-27T20:40:42.945Z,19.60
2018-06-27T20:43:12.996Z,19.50
2018-06-27T20:45:41.388Z,19.50
2018-06-27T20:48:14.878Z,19.30
2018-06-27T20:50:48.865Z,19.30
2018-06-27T20:53:21.009Z,19.20
2018-06-27T20:55:51.870Z,19.10
2018-06-27T20:58:25.202Z,19.00
2018-06-27T21:01:01.715Z,19.00
2018-06-27T21:03:31.175Z,18.90
2018-06-27T21:05:59.230Z,18.80
2018-06-27T21:08:31.899Z,18.90
2018-06-27T21:11:04.676Z,18.80
2018-06-27T21:13:32.729Z,18.70
2018-06-27T21:16:02.890Z,18.80
2018-06-27T21:18:31.710Z,18.70
2018-06-27T21:20:59.781Z,18.70
2018-06-27T21:23:27.930Z,18.60
2018-06-27T21:25:56.021Z,18.60
2018-06-27T21:28:23.887Z,18.50
2018-06-27T21:30:51.811Z,18.40
2018-06-27T21:33:19.725Z,18.30
2018-06-27T21:35:49.046Z,18.20
2018-06-27T21:38:17.000Z,18.20
2018-06-27T21:40:53.423Z,18.20
2018-06-27T21:43:21.685Z,18.20
2018-06-27T21:45:49.657Z,18.10
2018-06-27T21:48:17.569Z,18.10
2018-06-27T21:50:45.563Z,18.10
2018-06-27T21:53:13.527Z,18.00
2018-06-27T21:55:44.462Z,17.90
2018-06-27T21:58:12.453Z,17.80
2018-06-27T22:00:40.397Z,17.60
2018-06-27T22:03:08.273Z,17.60
2018-06-27T22:05:36.355Z,17.40
2018-06-27T22:08:04.506Z,17.40
2018-06-27T22:10:32.579Z,17.40
2018-06-27T22:13:00.426Z,17.40
2018-06-27T22:15:28.375Z,17.40
2018-06-27T22:20:25.188Z,17.10
2018-06-27T22:22:53.091Z,17.00
2018-06-27T22:25:20.993Z,16.90
2018-06-27T22:30:16.758Z,16.70
2018-06-27T22:32:44.774Z,16.60
2018-06-27T22:35:13.246Z,16.60
2018-06-27T22:37:41.170Z,16.60
2018-06-27T22:40:09.434Z,16.60
2018-06-27T22:42:38.221Z,16.50
2018-06-27T22:45:06.411Z,16.50
2018-06-27T22:47:34.357Z,16.40
2018-06-27T22:50:02.284Z,16.20
2018-06-27T22:52:30.210Z,16.30
2018-06-27T22:54:58.236Z,16.30
2018-06-27T22:57:26.284Z,16.20
2018-06-27T22:59:54.396Z,16.30
2018-06-27T23:02:23.449Z,16.20
2018-06-27T23:07:19.183Z,16.00
2018-06-27T23:09:47.197Z,16.10
2018-06-27T23:12:15.622Z,15.90
2018-06-27T23:14:43.562Z,15.80
2018-06-27T23:17:20.259Z,15.80
2018-06-27T23:19:54.251Z,15.70
2018-06-27T23:22:39.761Z,15.60
2018-06-27T23:25:08.729Z,15.60
2018-06-27T23:27:41.618Z,15.50
2018-06-27T23:30:10.459Z,15.40
2018-06-27T23:32:40.675Z,15.40
2018-06-27T23:35:10.167Z,15.40
2018-06-27T23:37:39.477Z,15.30
2018-06-27T23:40:08.320Z,15.20
2018-06-27T23:42:36.353Z,15.20
2018-06-27T23:45:06.942Z,15.30
2018-06-27T23:47:35.998Z,15.20
2018-06-27T23:50:09.670Z,15.10
2018-06-27T23:52:37.665Z,15.00
2018-06-27T23:55:05.694Z,15.00
2018-06-27T23:57:33.650Z,15.00
